Huntington, New York
Current Conditions -  °F | °C
As of 9:53 AM on Thursday 30 Oct 2014 (Local Time) from KFRG Reporting Station
Clear Clear  
Wind Chill: 55°   Ceiling: Unl
Heat Index: 55°   Visibility: 10mi
Dew Point: 46°   Wind: 6mph
Humidity: 72%   Direction: 330°NNW
Pressure: 29.99"   Gusts: NA
Location:  40.87°N, 73.42°W
Report Text: KFRG 301353Z 33005KT 10SM CLR 13/08 A2999 RMK AO2 SLP156 T01280078
Loading
Personal Weather Stations






























Interactive Weather Map
Tropical Storm Tracking
New forecast layout! Learn more

10-Day Weather Forecast

Advertisements
Track Severe Weather on mobile